sensor_id;sensor_type;location;lat;lon;timestamp;temperature;humidity
78884;SHT31;68262;51.968;5.672;2023-05-07T00:01:53;19.2;63.1
78884;SHT31;68262;51.968;5.672;2023-05-07T00:04:23;19.2;63.3
78884;SHT31;68262;51.968;5.672;2023-05-07T00:06:52;19.2;63.3
78884;SHT31;68262;51.968;5.672;2023-05-07T00:09:22;19.2;63.1
78884;SHT31;68262;51.968;5.672;2023-05-07T00:11:52;19.1;63.3
78884;SHT31;68262;51.968;5.672;2023-05-07T00:14:24;19.1;63.1
78884;SHT31;68262;51.968;5.672;2023-05-07T00:16:53;19.1;63.0
78884;SHT31;68262;51.968;5.672;2023-05-07T00:19:23;19.1;63.1
78884;SHT31;68262;51.968;5.672;2023-05-07T00:21:52;19.1;63.3
78884;SHT31;68262;51.968;5.672;2023-05-07T00:24:23;19.0;63.3
78884;SHT31;68262;51.968;5.672;2023-05-07T00:26:52;19.0;63.2
78884;SHT31;68262;51.968;5.672;2023-05-07T00:29:22;19.0;63.3
78884;SHT31;68262;51.968;5.672;2023-05-07T00:31:53;19.0;63.4
78884;SHT31;68262;51.968;5.672;2023-05-07T00:34:23;19.0;63.3
78884;SHT31;68262;51.968;5.672;2023-05-07T00:36:52;18.9;63.3
78884;SHT31;68262;51.968;5.672;2023-05-07T00:39:22;18.9;63.5
78884;SHT31;68262;51.968;5.672;2023-05-07T00:41:51;18.9;63.5
78884;SHT31;68262;51.968;5.672;2023-05-07T00:44:21;18.9;63.2
78884;SHT31;68262;51.968;5.672;2023-05-07T00:46:51;18.8;63.7
78884;SHT31;68262;51.968;5.672;2023-05-07T00:49:20;18.8;63.5
78884;SHT31;68262;51.968;5.672;2023-05-07T00:51:50;18.8;63.7
78884;SHT31;68262;51.968;5.672;2023-05-07T00:54:20;18.8;64.0
78884;SHT31;68262;51.968;5.672;2023-05-07T00:56:50;18.7;63.7
78884;SHT31;68262;51.968;5.672;2023-05-07T00:59:20;18.7;63.8
78884;SHT31;68262;51.968;5.672;2023-05-07T01:01:50;18.7;64.0
78884;SHT31;68262;51.968;5.672;2023-05-07T01:04:19;18.7;63.9
78884;SHT31;68262;51.968;5.672;2023-05-07T01:06:49;18.7;63.8
78884;SHT31;68262;51.968;5.672;2023-05-07T01:09:19;18.6;64.0
78884;SHT31;68262;51.968;5.672;2023-05-07T01:11:50;18.6;64.3
78884;SHT31;68262;51.968;5.672;2023-05-07T01:14:20;18.6;64.4
78884;SHT31;68262;51.968;5.672;2023-05-07T01:16:50;18.6;64.4
78884;SHT31;68262;51.968;5.672;2023-05-07T01:19:20;18.6;64.6
78884;SHT31;68262;51.968;5.672;2023-05-07T01:21:51;18.6;64.3
78884;SHT31;68262;51.968;5.672;2023-05-07T01:24:23;18.6;64.4
78884;SHT31;68262;51.968;5.672;2023-05-07T01:26:52;18.6;64.4
78884;SHT31;68262;51.968;5.672;2023-05-07T01:29:22;18.6;64.4
78884;SHT31;68262;51.968;5.672;2023-05-07T01:31:52;18.6;64.3
78884;SHT31;68262;51.968;5.672;2023-05-07T01:34:25;18.6;64.2
78884;SHT31;68262;51.968;5.672;2023-05-07T01:36:55;18.6;64.4
78884;SHT31;68262;51.968;5.672;2023-05-07T01:39:27;18.6;64.4
78884;SHT31;68262;51.968;5.672;2023-05-07T01:42:00;18.6;64.3
78884;SHT31;68262;51.968;5.672;2023-05-07T01:44:32;18.6;64.2
78884;SHT31;68262;51.968;5.672;2023-05-07T01:47:02;18.6;64.4
78884;SHT31;68262;51.968;5.672;2023-05-07T01:49:33;18.5;64.4
78884;SHT31;68262;51.968;5.672;2023-05-07T01:52:03;18.5;64.4
78884;SHT31;68262;51.968;5.672;2023-05-07T01:54:33;18.5;64.6
78884;SHT31;68262;51.968;5.672;2023-05-07T01:57:03;18.5;64.5
78884;SHT31;68262;51.968;5.672;2023-05-07T01:59:33;18.5;64.4
78884;SHT31;68262;51.968;5.672;2023-05-07T02:02:02;18.5;64.8
78884;SHT31;68262;51.968;5.672;2023-05-07T02:04:31;18.6;64.5
78884;SHT31;68262;51.968;5.672;2023-05-07T02:07:01;18.6;64.4
78884;SHT31;68262;51.968;5.672;2023-05-07T02:09:30;18.6;64.2
78884;SHT31;68262;51.968;5.672;2023-05-07T02:12:00;18.6;64.3
78884;SHT31;68262;51.968;5.672;2023-05-07T02:14:29;18.6;64.2
78884;SHT31;68262;51.968;5.672;2023-05-07T02:16:59;18.6;64.4
78884;SHT31;68262;51.968;5.672;2023-05-07T02:19:28;18.6;64.3
78884;SHT31;68262;51.968;5.672;2023-05-07T02:21:58;18.6;64.0
78884;SHT31;68262;51.968;5.672;2023-05-07T02:24:27;18.5;64.0
78884;SHT31;68262;51.968;5.672;2023-05-07T02:26:57;18.5;64.1
78884;SHT31;68262;51.968;5.672;2023-05-07T02:29:27;18.5;64.1
78884;SHT31;68262;51.968;5.672;2023-05-07T02:31:56;18.5;64.1
78884;SHT31;68262;51.968;5.672;2023-05-07T02:34:26;18.5;64.4
78884;SHT31;68262;51.968;5.672;2023-05-07T02:36:56;18.5;64.7
78884;SHT31;68262;51.968;5.672;2023-05-07T02:39:25;18.5;65.2
78884;SHT31;68262;51.968;5.672;2023-05-07T02:41:55;18.5;64.6
78884;SHT31;68262;51.968;5.672;2023-05-07T02:44:24;18.5;65.0
78884;SHT31;68262;51.968;5.672;2023-05-07T02:46:53;18.5;65.2
78884;SHT31;68262;51.968;5.672;2023-05-07T02:49:23;18.5;64.5
78884;SHT31;68262;51.968;5.672;2023-05-07T02:51:52;18.6;65.1
78884;SHT31;68262;51.968;5.672;2023-05-07T02:54:23;18.6;64.8
78884;SHT31;68262;51.968;5.672;2023-05-07T02:56:53;18.6;64.1
78884;SHT31;68262;51.968;5.672;2023-05-07T02:59:23;18.7;64.3
78884;SHT31;68262;51.968;5.672;2023-05-07T03:01:53;18.7;64.1
78884;SHT31;68262;51.968;5.672;2023-05-07T03:04:24;18.7;63.3
78884;SHT31;68262;51.968;5.672;2023-05-07T03:06:54;18.7;63.8
78884;SHT31;68262;51.968;5.672;2023-05-07T03:09:24;18.7;64.1
78884;SHT31;68262;51.968;5.672;2023-05-07T03:11:53;18.7;63.6
78884;SHT31;68262;51.968;5.672;2023-05-07T03:14:23;18.7;63.2
78884;SHT31;68262;51.968;5.672;2023-05-07T03:16:54;18.7;63.0
78884;SHT31;68262;51.968;5.672;2023-05-07T03:19:24;18.7;62.9
78884;SHT31;68262;51.968;5.672;2023-05-07T03:21:53;18.7;63.1
78884;SHT31;68262;51.968;5.672;2023-05-07T03:24:23;18.6;63.0
78884;SHT31;68262;51.968;5.672;2023-05-07T03:26:52;18.6;62.7
78884;SHT31;68262;51.968;5.672;2023-05-07T03:29:22;18.6;63.1
78884;SHT31;68262;51.968;5.672;2023-05-07T03:31:51;18.6;62.8
78884;SHT31;68262;51.968;5.672;2023-05-07T03:34:22;18.5;63.0
78884;SHT31;68262;51.968;5.672;2023-05-07T03:36:52;18.5;62.7
78884;SHT31;68262;51.968;5.672;2023-05-07T03:39:21;18.5;62.9
78884;SHT31;68262;51.968;5.672;2023-05-07T03:41:51;18.5;63.4
78884;SHT31;68262;51.968;5.672;2023-05-07T03:44:20;18.4;63.2
78884;SHT31;68262;51.968;5.672;2023-05-07T03:46:49;18.4;63.5
78884;SHT31;68262;51.968;5.672;2023-05-07T03:49:19;18.4;63.6
78884;SHT31;68262;51.968;5.672;2023-05-07T03:51:48;18.4;63.5
78884;SHT31;68262;51.968;5.672;2023-05-07T03:54:18;18.3;63.9
78884;SHT31;68262;51.968;5.672;2023-05-07T03:56:49;18.3;64.0
78884;SHT31;68262;51.968;5.672;2023-05-07T03:59:21;18.3;64.2
78884;SHT31;68262;51.968;5.672;2023-05-07T04:01:50;18.2;64.4
78884;SHT31;68262;51.968;5.672;2023-05-07T04:04:22;18.2;64.4
78884;SHT31;68262;51.968;5.672;2023-05-07T04:06:51;18.2;64.8
78884;SHT31;68262;51.968;5.672;2023-05-07T04:09:21;18.2;64.8
78884;SHT31;68262;51.968;5.672;2023-05-07T04:11:50;18.2;65.1
78884;SHT31;68262;51.968;5.672;2023-05-07T04:14:20;18.2;65.2
78884;SHT31;68262;51.968;5.672;2023-05-07T04:16:49;18.1;65.3
78884;SHT31;68262;51.968;5.672;2023-05-07T04:19:19;18.1;65.3
78884;SHT31;68262;51.968;5.672;2023-05-07T04:21:48;18.1;65.2
78884;SHT31;68262;51.968;5.672;2023-05-07T04:24:18;18.1;65.2
78884;SHT31;68262;51.968;5.672;2023-05-07T04:26:47;18.1;65.3
78884;SHT31;68262;51.968;5.672;2023-05-07T04:29:18;18.1;65.4
78884;SHT31;68262;51.968;5.672;2023-05-07T04:31:48;18.1;65.8
78884;SHT31;68262;51.968;5.672;2023-05-07T04:34:18;18.1;66.0
78884;SHT31;68262;51.968;5.672;2023-05-07T04:36:50;18.1;66.1
78884;SHT31;68262;51.968;5.672;2023-05-07T04:39:19;18.1;65.7
78884;SHT31;68262;51.968;5.672;2023-05-07T04:41:49;18.1;65.9
78884;SHT31;68262;51.968;5.672;2023-05-07T04:44:18;18.1;66.1
78884;SHT31;68262;51.968;5.672;2023-05-07T04:46:48;18.1;66.2
78884;SHT31;68262;51.968;5.672;2023-05-07T04:49:17;18.1;66.1
78884;SHT31;68262;51.968;5.672;2023-05-07T04:51:47;18.1;66.0
78884;SHT31;68262;51.968;5.672;2023-05-07T04:54:16;18.1;66.5
78884;SHT31;68262;51.968;5.672;2023-05-07T04:56:45;18.1;66.4
78884;SHT31;68262;51.968;5.672;2023-05-07T04:59:15;18.1;66.5
78884;SHT31;68262;51.968;5.672;2023-05-07T05:01:44;18.1;66.4
78884;SHT31;68262;51.968;5.672;2023-05-07T05:04:14;18.1;66.7
78884;SHT31;68262;51.968;5.672;2023-05-07T05:06:43;18.1;66.3
78884;SHT31;68262;51.968;5.672;2023-05-07T05:09:13;18.1;66.2
78884;SHT31;68262;51.968;5.672;2023-05-07T05:11:43;18.1;66.3
78884;SHT31;68262;51.968;5.672;2023-05-07T05:14:15;18.1;66.5
78884;SHT31;68262;51.968;5.672;2023-05-07T05:16:45;18.1;66.3
78884;SHT31;68262;51.968;5.672;2023-05-07T05:19:14;18.1;66.5
78884;SHT31;68262;51.968;5.672;2023-05-07T05:21:44;18.1;66.6
78884;SHT31;68262;51.968;5.672;2023-05-07T05:24:13;18.1;66.7
78884;SHT31;68262;51.968;5.672;2023-05-07T05:26:43;18.1;66.9
78884;SHT31;68262;51.968;5.672;2023-05-07T05:29:13;18.1;66.9
78884;SHT31;68262;51.968;5.672;2023-05-07T05:31:42;18.1;66.9
78884;SHT31;68262;51.968;5.672;2023-05-07T05:34:12;18.0;67.3
78884;SHT31;68262;51.968;5.672;2023-05-07T05:36:42;18.0;67.2
78884;SHT31;68262;51.968;5.672;2023-05-07T05:39:11;18.0;67.2
78884;SHT31;68262;51.968;5.672;2023-05-07T05:41:41;18.0;67.5
78884;SHT31;68262;51.968;5.672;2023-05-07T05:44:11;18.0;67.3
78884;SHT31;68262;51.968;5.672;2023-05-07T05:46:40;18.0;67.5
78884;SHT31;68262;51.968;5.672;2023-05-07T05:49:09;18.0;67.7
78884;SHT31;68262;51.968;5.672;2023-05-07T05:51:39;18.0;67.5
78884;SHT31;68262;51.968;5.672;2023-05-07T05:54:08;18.0;67.5
78884;SHT31;68262;51.968;5.672;2023-05-07T05:56:38;18.0;67.8
78884;SHT31;68262;51.968;5.672;2023-05-07T05:59:08;18.0;67.6
78884;SHT31;68262;51.968;5.672;2023-05-07T06:01:37;18.0;67.9
78884;SHT31;68262;51.968;5.672;2023-05-07T06:04:07;18.0;67.7
78884;SHT31;68262;51.968;5.672;2023-05-07T06:06:37;18.0;67.9
78884;SHT31;68262;51.968;5.672;2023-05-07T06:09:07;18.1;67.9
78884;SHT31;68262;51.968;5.672;2023-05-07T06:11:37;18.1;67.8
78884;SHT31;68262;51.968;5.672;2023-05-07T06:14:08;18.1;67.3
78884;SHT31;68262;51.968;5.672;2023-05-07T06:16:39;18.2;67.5
78884;SHT31;68262;51.968;5.672;2023-05-07T06:19:09;18.2;67.7
78884;SHT31;68262;51.968;5.672;2023-05-07T06:21:39;18.2;68.0
78884;SHT31;68262;51.968;5.672;2023-05-07T06:24:08;18.2;67.7
78884;SHT31;68262;51.968;5.672;2023-05-07T06:26:38;18.2;67.9
78884;SHT31;68262;51.968;5.672;2023-05-07T06:29:07;18.2;67.8
78884;SHT31;68262;51.968;5.672;2023-05-07T06:31:37;18.3;67.6
78884;SHT31;68262;51.968;5.672;2023-05-07T06:34:07;18.3;67.7
78884;SHT31;68262;51.968;5.672;2023-05-07T06:36:37;18.3;67.6
78884;SHT31;68262;51.968;5.672;2023-05-07T06:39:06;18.4;66.9
78884;SHT31;68262;51.968;5.672;2023-05-07T06:41:36;18.4;66.9
78884;SHT31;68262;51.968;5.672;2023-05-07T06:44:06;18.4;67.0
78884;SHT31;68262;51.968;5.672;2023-05-07T06:46:35;18.4;66.9
78884;SHT31;68262;51.968;5.672;2023-05-07T06:49:05;18.4;67.3
78884;SHT31;68262;51.968;5.672;2023-05-07T06:51:34;18.4;67.2
78884;SHT31;68262;51.968;5.672;2023-05-07T06:54:04;18.5;67.3
78884;SHT31;68262;51.968;5.672;2023-05-07T06:56:34;18.5;67.1
78884;SHT31;68262;51.968;5.672;2023-05-07T06:59:04;18.5;67.4
78884;SHT31;68262;51.968;5.672;2023-05-07T07:01:33;18.5;68.0
78884;SHT31;68262;51.968;5.672;2023-05-07T07:04:03;18.5;68.6
78884;SHT31;68262;51.968;5.672;2023-05-07T07:06:33;18.6;67.6
78884;SHT31;68262;51.968;5.672;2023-05-07T07:09:02;18.6;67.9
78884;SHT31;68262;51.968;5.672;2023-05-07T07:11:32;18.7;67.9
78884;SHT31;68262;51.968;5.672;2023-05-07T07:14:01;18.7;68.0
78884;SHT31;68262;51.968;5.672;2023-05-07T07:16:32;18.8;68.1
78884;SHT31;68262;51.968;5.672;2023-05-07T07:19:02;18.8;67.3
78884;SHT31;68262;51.968;5.672;2023-05-07T07:21:31;18.9;67.2
78884;SHT31;68262;51.968;5.672;2023-05-07T07:24:01;18.9;67.4
78884;SHT31;68262;51.968;5.672;2023-05-07T07:26:30;18.9;67.0
78884;SHT31;68262;51.968;5.672;2023-05-07T07:29:00;19.0;66.3
78884;SHT31;68262;51.968;5.672;2023-05-07T07:31:29;19.0;66.7
78884;SHT31;68262;51.968;5.672;2023-05-07T07:33:59;19.0;66.5
78884;SHT31;68262;51.968;5.672;2023-05-07T07:36:28;19.0;66.1
78884;SHT31;68262;51.968;5.672;2023-05-07T07:38:58;19.0;65.9
78884;SHT31;68262;51.968;5.672;2023-05-07T07:41:27;19.0;67.1
78884;SHT31;68262;51.968;5.672;2023-05-07T07:43:57;19.0;67.4
78884;SHT31;68262;51.968;5.672;2023-05-07T07:46:26;19.0;66.5
78884;SHT31;68262;51.968;5.672;2023-05-07T07:48:56;19.0;66.7
78884;SHT31;68262;51.968;5.672;2023-05-07T07:51:27;19.0;67.6
78884;SHT31;68262;51.968;5.672;2023-05-07T07:53:56;19.0;67.5
78884;SHT31;68262;51.968;5.672;2023-05-07T07:56:26;19.0;68.0
78884;SHT31;68262;51.968;5.672;2023-05-07T07:58:56;19.0;67.7
78884;SHT31;68262;51.968;5.672;2023-05-07T08:01:26;19.0;68.1
78884;SHT31;68262;51.968;5.672;2023-05-07T08:03:55;19.0;67.9
78884;SHT31;68262;51.968;5.672;2023-05-07T08:06:26;19.0;67.6
78884;SHT31;68262;51.968;5.672;2023-05-07T08:08:55;19.0;68.4
78884;SHT31;68262;51.968;5.672;2023-05-07T08:11:24;19.1;67.7
78884;SHT31;68262;51.968;5.672;2023-05-07T08:13:54;19.1;67.2
78884;SHT31;68262;51.968;5.672;2023-05-07T08:16:24;19.1;68.0
78884;SHT31;68262;51.968;5.672;2023-05-07T08:18:54;19.1;67.2
78884;SHT31;68262;51.968;5.672;2023-05-07T08:21:24;19.2;65.9
78884;SHT31;68262;51.968;5.672;2023-05-07T08:23:53;19.2;66.3
78884;SHT31;68262;51.968;5.672;2023-05-07T08:26:25;19.2;66.6
78884;SHT31;68262;51.968;5.672;2023-05-07T08:28:54;19.2;67.3
78884;SHT31;68262;51.968;5.672;2023-05-07T08:31:23;19.3;67.4
78884;SHT31;68262;51.968;5.672;2023-05-07T08:33:53;19.3;66.9
78884;SHT31;68262;51.968;5.672;2023-05-07T08:36:22;19.3;68.2
78884;SHT31;68262;51.968;5.672;2023-05-07T08:38:53;19.4;68.8
78884;SHT31;68262;51.968;5.672;2023-05-07T08:41:22;19.4;68.2
78884;SHT31;68262;51.968;5.672;2023-05-07T08:43:59;19.5;66.8
78884;SHT31;68262;51.968;5.672;2023-05-07T08:46:32;19.6;68.1
78884;SHT31;68262;51.968;5.672;2023-05-07T08:49:04;19.7;67.9
78884;SHT31;68262;51.968;5.672;2023-05-07T08:51:34;19.8;67.3
78884;SHT31;68262;51.968;5.672;2023-05-07T08:54:05;19.9;66.7
78884;SHT31;68262;51.968;5.672;2023-05-07T08:56:35;20.0;66.5
78884;SHT31;68262;51.968;5.672;2023-05-07T08:59:09;20.1;64.8
78884;SHT31;68262;51.968;5.672;2023-05-07T09:01:38;20.2;64.3
78884;SHT31;68262;51.968;5.672;2023-05-07T09:04:08;20.2;64.1
78884;SHT31;68262;51.968;5.672;2023-05-07T09:06:39;20.3;63.8
78884;SHT31;68262;51.968;5.672;2023-05-07T09:09:09;20.4;63.8
78884;SHT31;68262;51.968;5.672;2023-05-07T09:11:38;20.5;64.1
78884;SHT31;68262;51.968;5.672;2023-05-07T09:14:08;20.6;63.3
78884;SHT31;68262;51.968;5.672;2023-05-07T09:16:37;20.7;63.8
78884;SHT31;68262;51.968;5.672;2023-05-07T09:19:07;20.8;60.9
78884;SHT31;68262;51.968;5.672;2023-05-07T09:21:37;20.9;63.8
78884;SHT31;68262;51.968;5.672;2023-05-07T09:24:07;21.0;64.3
78884;SHT31;68262;51.968;5.672;2023-05-07T09:26:37;21.1;62.9
78884;SHT31;68262;51.968;5.672;2023-05-07T09:29:07;21.3;61.7
78884;SHT31;68262;51.968;5.672;2023-05-07T09:31:38;21.4;61.7
78884;SHT31;68262;51.968;5.672;2023-05-07T09:34:08;21.5;61.7
78884;SHT31;68262;51.968;5.672;2023-05-07T09:36:39;21.6;59.1
78884;SHT31;68262;51.968;5.672;2023-05-07T09:39:09;21.6;58.4
78884;SHT31;68262;51.968;5.672;2023-05-07T09:41:45;21.6;59.2
78884;SHT31;68262;51.968;5.672;2023-05-07T09:44:19;21.7;59.1
78884;SHT31;68262;51.968;5.672;2023-05-07T09:46:53;21.7;60.2
78884;SHT31;68262;51.968;5.672;2023-05-07T09:49:24;21.7;59.2
78884;SHT31;68262;51.968;5.672;2023-05-07T09:51:54;21.8;58.1
78884;SHT31;68262;51.968;5.672;2023-05-07T09:54:24;21.8;56.6
78884;SHT31;68262;51.968;5.672;2023-05-07T09:56:57;21.8;56.2
78884;SHT31;68262;51.968;5.672;2023-05-07T09:59:27;21.8;55.5
78884;SHT31;68262;51.968;5.672;2023-05-07T10:01:59;21.8;57.2
78884;SHT31;68262;51.968;5.672;2023-05-07T10:04:29;21.8;57.8
78884;SHT31;68262;51.968;5.672;2023-05-07T10:07:01;21.8;55.8
78884;SHT31;68262;51.968;5.672;2023-05-07T10:09:32;21.8;55.1
78884;SHT31;68262;51.968;5.672;2023-05-07T10:12:07;21.8;56.3
78884;SHT31;68262;51.968;5.672;2023-05-07T10:14:37;21.8;55.8
78884;SHT31;68262;51.968;5.672;2023-05-07T10:17:06;21.8;56.7
78884;SHT31;68262;51.968;5.672;2023-05-07T10:19:42;21.8;56.8
78884;SHT31;68262;51.968;5.672;2023-05-07T10:22:14;21.8;57.0
78884;SHT31;68262;51.968;5.672;2023-05-07T10:24:45;21.8;58.5
78884;SHT31;68262;51.968;5.672;2023-05-07T10:27:21;21.8;59.5
78884;SHT31;68262;51.968;5.672;2023-05-07T10:30:01;21.9;57.9
78884;SHT31;68262;51.968;5.672;2023-05-07T10:32:42;21.9;58.1
78884;SHT31;68262;51.968;5.672;2023-05-07T10:35:17;21.9;57.8
78884;SHT31;68262;51.968;5.672;2023-05-07T10:37:49;22.0;57.8
78884;SHT31;68262;51.968;5.672;2023-05-07T10:40:20;22.0;58.4
78884;SHT31;68262;51.968;5.672;2023-05-07T10:42:58;22.0;59.1
78884;SHT31;68262;51.968;5.672;2023-05-07T10:45:29;22.0;58.4
78884;SHT31;68262;51.968;5.672;2023-05-07T10:48:09;22.1;58.0
78884;SHT31;68262;51.968;5.672;2023-05-07T10:50:40;22.1;58.2
78884;SHT31;68262;51.968;5.672;2023-05-07T10:53:24;22.2;57.6
78884;SHT31;68262;51.968;5.672;2023-05-07T10:56:26;22.2;56.8
78884;SHT31;68262;51.968;5.672;2023-05-07T10:59:31;22.3;56.5
78884;SHT31;68262;51.968;5.672;2023-05-07T11:02:03;22.3;57.1
78884;SHT31;68262;51.968;5.672;2023-05-07T11:04:34;22.4;56.0
78884;SHT31;68262;51.968;5.672;2023-05-07T11:07:38;22.4;56.8
78884;SHT31;68262;51.968;5.672;2023-05-07T11:10:08;22.5;58.7
78884;SHT31;68262;51.968;5.672;2023-05-07T11:12:51;22.5;57.9
78884;SHT31;68262;51.968;5.672;2023-05-07T11:15:41;22.6;57.0
78884;SHT31;68262;51.968;5.672;2023-05-07T11:18:13;22.7;55.7
78884;SHT31;68262;51.968;5.672;2023-05-07T11:20:51;22.7;56.0
78884;SHT31;68262;51.968;5.672;2023-05-07T11:28:22;22.9;56.3
78884;SHT31;68262;51.968;5.672;2023-05-07T11:30:52;23.0;56.8
78884;SHT31;68262;51.968;5.672;2023-05-07T11:33:22;23.1;55.5
78884;SHT31;68262;51.968;5.672;2023-05-07T11:35:53;23.1;55.9
78884;SHT31;68262;51.968;5.672;2023-05-07T11:38:24;23.2;55.2
78884;SHT31;68262;51.968;5.672;2023-05-07T11:40:55;23.2;52.0
78884;SHT31;68262;51.968;5.672;2023-05-07T11:43:26;23.2;54.1
78884;SHT31;68262;51.968;5.672;2023-05-07T11:46:12;23.2;56.3
78884;SHT31;68262;51.968;5.672;2023-05-07T11:48:43;23.2;55.4
78884;SHT31;68262;51.968;5.672;2023-05-07T11:51:13;23.3;54.5
78884;SHT31;68262;51.968;5.672;2023-05-07T11:53:47;23.3;55.3
78884;SHT31;68262;51.968;5.672;2023-05-07T11:56:18;23.3;54.5
78884;SHT31;68262;51.968;5.672;2023-05-07T11:58:48;23.3;53.5
78884;SHT31;68262;51.968;5.672;2023-05-07T12:01:19;23.3;52.9
78884;SHT31;68262;51.968;5.672;2023-05-07T12:03:48;23.3;52.9
78884;SHT31;68262;51.968;5.672;2023-05-07T12:06:18;23.3;53.9
78884;SHT31;68262;51.968;5.672;2023-05-07T12:08:48;23.3;54.7
78884;SHT31;68262;51.968;5.672;2023-05-07T12:11:25;23.4;56.9
78884;SHT31;68262;51.968;5.672;2023-05-07T12:13:55;23.4;56.7
78884;SHT31;68262;51.968;5.672;2023-05-07T12:16:25;23.4;54.7
78884;SHT31;68262;51.968;5.672;2023-05-07T12:18:57;23.5;56.0
78884;SHT31;68262;51.968;5.672;2023-05-07T12:21:26;23.6;55.1
78884;SHT31;68262;51.968;5.672;2023-05-07T12:23:56;23.6;56.0
78884;SHT31;68262;51.968;5.672;2023-05-07T12:26:25;23.7;56.5
78884;SHT31;68262;51.968;5.672;2023-05-07T12:28:57;23.8;53.8
78884;SHT31;68262;51.968;5.672;2023-05-07T12:31:27;24.0;52.9
78884;SHT31;68262;51.968;5.672;2023-05-07T12:33:57;24.1;54.3
78884;SHT31;68262;51.968;5.672;2023-05-07T12:36:39;24.2;52.7
78884;SHT31;68262;51.968;5.672;2023-05-07T12:39:09;24.4;52.1
78884;SHT31;68262;51.968;5.672;2023-05-07T12:41:54;24.5;53.3
78884;SHT31;68262;51.968;5.672;2023-05-07T12:44:31;24.7;52.0
78884;SHT31;68262;51.968;5.672;2023-05-07T12:47:03;24.8;52.5
78884;SHT31;68262;51.968;5.672;2023-05-07T12:49:34;24.9;55.3
78884;SHT31;68262;51.968;5.672;2023-05-07T12:52:06;25.0;50.3
78884;SHT31;68262;51.968;5.672;2023-05-07T12:54:37;25.0;52.3
78884;SHT31;68262;51.968;5.672;2023-05-07T12:57:09;25.1;49.0
78884;SHT31;68262;51.968;5.672;2023-05-07T12:59:40;25.2;48.7
78884;SHT31;68262;51.968;5.672;2023-05-07T13:02:10;25.2;48.7
78884;SHT31;68262;51.968;5.672;2023-05-07T13:04:40;25.3;47.3
78884;SHT31;68262;51.968;5.672;2023-05-07T13:07:09;25.3;49.8
78884;SHT31;68262;51.968;5.672;2023-05-07T13:09:39;25.3;48.2
78884;SHT31;68262;51.968;5.672;2023-05-07T13:12:09;25.2;48.9
78884;SHT31;68262;51.968;5.672;2023-05-07T13:14:39;25.2;46.4
78884;SHT31;68262;51.968;5.672;2023-05-07T13:17:08;25.2;47.2
78884;SHT31;68262;51.968;5.672;2023-05-07T13:19:39;25.1;47.7
78884;SHT31;68262;51.968;5.672;2023-05-07T13:22:09;25.1;49.2
78884;SHT31;68262;51.968;5.672;2023-05-07T13:24:38;25.0;49.7
78884;SHT31;68262;51.968;5.672;2023-05-07T13:27:10;25.0;49.3
78884;SHT31;68262;51.968;5.672;2023-05-07T13:29:40;25.0;48.9
78884;SHT31;68262;51.968;5.672;2023-05-07T13:32:11;25.0;47.1
78884;SHT31;68262;51.968;5.672;2023-05-07T13:34:41;25.0;48.9
78884;SHT31;68262;51.968;5.672;2023-05-07T13:37:10;25.0;49.5
78884;SHT31;68262;51.968;5.672;2023-05-07T13:39:40;25.0;49.9
78884;SHT31;68262;51.968;5.672;2023-05-07T13:42:10;25.1;47.2
78884;SHT31;68262;51.968;5.672;2023-05-07T13:44:39;25.1;48.6
78884;SHT31;68262;51.968;5.672;2023-05-07T13:47:09;25.2;49.3
78884;SHT31;68262;51.968;5.672;2023-05-07T13:49:38;25.2;49.6
78884;SHT31;68262;51.968;5.672;2023-05-07T13:52:08;25.3;48.8
78884;SHT31;68262;51.968;5.672;2023-05-07T13:54:38;25.4;49.3
78884;SHT31;68262;51.968;5.672;2023-05-07T13:57:07;25.4;49.1
78884;SHT31;68262;51.968;5.672;2023-05-07T13:59:37;25.4;47.5
78884;SHT31;68262;51.968;5.672;2023-05-07T14:02:06;25.5;47.4
78884;SHT31;68262;51.968;5.672;2023-05-07T14:04:37;25.5;50.2
78884;SHT31;68262;51.968;5.672;2023-05-07T14:07:07;25.5;48.0
78884;SHT31;68262;51.968;5.672;2023-05-07T14:09:36;25.5;49.0
78884;SHT31;68262;51.968;5.672;2023-05-07T14:12:07;25.4;47.7
78884;SHT31;68262;51.968;5.672;2023-05-07T14:14:36;25.4;48.0
78884;SHT31;68262;51.968;5.672;2023-05-07T14:17:06;25.4;48.4
78884;SHT31;68262;51.968;5.672;2023-05-07T14:19:35;25.4;47.5
78884;SHT31;68262;51.968;5.672;2023-05-07T14:22:05;25.4;47.8
78884;SHT31;68262;51.968;5.672;2023-05-07T14:24:34;25.3;48.1
78884;SHT31;68262;51.968;5.672;2023-05-07T14:27:04;25.3;49.0
78884;SHT31;68262;51.968;5.672;2023-05-07T14:29:33;25.3;48.1
78884;SHT31;68262;51.968;5.672;2023-05-07T14:32:04;25.2;48.6
78884;SHT31;68262;51.968;5.672;2023-05-07T14:34:33;25.1;48.6
78884;SHT31;68262;51.968;5.672;2023-05-07T14:37:03;25.1;48.5
78884;SHT31;68262;51.968;5.672;2023-05-07T14:39:34;25.1;49.9
78884;SHT31;68262;51.968;5.672;2023-05-07T14:42:03;25.0;49.2
78884;SHT31;68262;51.968;5.672;2023-05-07T14:44:35;25.0;48.8
78884;SHT31;68262;51.968;5.672;2023-05-07T14:47:05;25.0;48.8
78884;SHT31;68262;51.968;5.672;2023-05-07T14:49:35;25.0;48.8
78884;SHT31;68262;51.968;5.672;2023-05-07T14:52:04;25.0;48.7
78884;SHT31;68262;51.968;5.672;2023-05-07T14:54:36;25.0;48.5
78884;SHT31;68262;51.968;5.672;2023-05-07T14:57:08;25.0;47.9
78884;SHT31;68262;51.968;5.672;2023-05-07T14:59:38;24.9;49.1
78884;SHT31;68262;51.968;5.672;2023-05-07T15:02:09;24.9;48.7
78884;SHT31;68262;51.968;5.672;2023-05-07T15:04:39;24.9;48.5
78884;SHT31;68262;51.968;5.672;2023-05-07T15:07:13;24.8;48.6
78884;SHT31;68262;51.968;5.672;2023-05-07T15:09:43;24.8;49.2
78884;SHT31;68262;51.968;5.672;2023-05-07T15:12:14;24.8;48.4
78884;SHT31;68262;51.968;5.672;2023-05-07T15:14:44;24.7;49.2
78884;SHT31;68262;51.968;5.672;2023-05-07T15:17:13;24.7;46.9
78884;SHT31;68262;51.968;5.672;2023-05-07T15:19:43;24.6;46.6
78884;SHT31;68262;51.968;5.672;2023-05-07T15:22:13;24.4;47.5
78884;SHT31;68262;51.968;5.672;2023-05-07T15:24:42;24.3;47.8
78884;SHT31;68262;51.968;5.672;2023-05-07T15:27:12;24.1;48.0
78884;SHT31;68262;51.968;5.672;2023-05-07T15:29:41;23.9;48.0
78884;SHT31;68262;51.968;5.672;2023-05-07T15:32:11;23.8;48.7
78884;SHT31;68262;51.968;5.672;2023-05-07T15:34:40;23.7;47.7
78884;SHT31;68262;51.968;5.672;2023-05-07T15:37:10;23.6;48.3
78884;SHT31;68262;51.968;5.672;2023-05-07T15:39:39;23.5;48.7
78884;SHT31;68262;51.968;5.672;2023-05-07T15:42:09;23.4;49.9
78884;SHT31;68262;51.968;5.672;2023-05-07T15:44:39;23.3;54.7
78884;SHT31;68262;51.968;5.672;2023-05-07T15:47:08;23.1;57.6
78884;SHT31;68262;51.968;5.672;2023-05-07T15:49:38;22.8;58.4
78884;SHT31;68262;51.968;5.672;2023-05-07T15:52:07;22.4;59.5
78884;SHT31;68262;51.968;5.672;2023-05-07T15:54:40;22.0;61.3
78884;SHT31;68262;51.968;5.672;2023-05-07T15:57:10;21.6;64.2
78884;SHT31;68262;51.968;5.672;2023-05-07T15:59:39;21.3;66.5
78884;SHT31;68262;51.968;5.672;2023-05-07T16:02:09;21.1;68.0
78884;SHT31;68262;51.968;5.672;2023-05-07T16:04:39;20.9;68.4
78884;SHT31;68262;51.968;5.672;2023-05-07T16:07:09;20.8;67.3
78884;SHT31;68262;51.968;5.672;2023-05-07T16:09:38;20.7;65.5
78884;SHT31;68262;51.968;5.672;2023-05-07T16:12:08;20.6;67.1
78884;SHT31;68262;51.968;5.672;2023-05-07T16:14:38;20.5;68.4
78884;SHT31;68262;51.968;5.672;2023-05-07T16:17:07;20.4;67.5
78884;SHT31;68262;51.968;5.672;2023-05-07T16:19:37;20.4;68.8
78884;SHT31;68262;51.968;5.672;2023-05-07T16:22:06;20.3;68.7
78884;SHT31;68262;51.968;5.672;2023-05-07T16:24:35;20.2;69.0
78884;SHT31;68262;51.968;5.672;2023-05-07T16:27:05;20.1;68.2
78884;SHT31;68262;51.968;5.672;2023-05-07T16:29:35;20.1;68.4